createdAt,value
2022-10-04T00:00:59.007Z,66.93
2022-10-04T00:02:03.271Z,66.99
2022-10-04T00:03:07.648Z,66.89
2022-10-04T00:04:11.782Z,66.93
2022-10-04T00:05:15.919Z,66.92
2022-10-04T00:06:20.004Z,66.94
2022-10-04T00:07:24.122Z,67
2022-10-04T00:08:28.222Z,66.95
2022-10-04T00:09:32.319Z,67.02
2022-10-04T00:10:36.416Z,66.97
2022-10-04T00:11:41.220Z,67.17
2022-10-04T00:12:45.472Z,67.19
2022-10-04T00:13:49.560Z,67.52
2022-10-04T00:14:53.672Z,67.41
2022-10-04T00:15:57.889Z,67.39
2022-10-04T00:17:02.030Z,67.25
2022-10-04T00:18:06.103Z,67.4
2022-10-04T00:19:10.181Z,67.39
2022-10-04T00:20:14.988Z,67.29
2022-10-04T00:21:19.083Z,67.43
2022-10-04T00:22:23.196Z,67.35
2022-10-04T00:23:27.311Z,67.26
2022-10-04T00:24:31.417Z,67.36
2022-10-04T00:25:35.490Z,67.28
2022-10-04T00:26:39.688Z,67.34
2022-10-04T00:27:43.803Z,67.3
2022-10-04T00:28:47.907Z,67.26
2022-10-04T00:29:52.004Z,67.31
2022-10-04T00:30:56.314Z,67.29
2022-10-04T00:32:00.433Z,67.38
2022-10-04T00:33:04.547Z,67.2
2022-10-04T00:34:08.642Z,67.45
2022-10-04T00:35:12.760Z,67.38
2022-10-04T00:36:16.855Z,67.43
2022-10-04T00:37:20.978Z,67.21
2022-10-04T00:38:25.081Z,67.32
2022-10-04T00:39:29.242Z,67.32
2022-10-04T00:40:33.324Z,67.38
2022-10-04T00:41:37.418Z,67.39
2022-10-04T00:42:41.522Z,67.33
2022-10-04T00:43:45.639Z,67.4
2022-10-04T00:44:49.724Z,67.33
2022-10-04T00:45:54.037Z,67.3
2022-10-04T00:46:58.185Z,67.25
2022-10-04T00:48:02.271Z,67.29
2022-10-04T00:49:06.405Z,67.16
2022-10-04T00:50:10.499Z,67.29
2022-10-04T00:51:14.595Z,67.28
2022-10-04T00:52:18.679Z,67.32
2022-10-04T00:53:22.799Z,67.29
2022-10-04T00:54:26.911Z,67.25
2022-10-04T00:55:31.006Z,67.28
2022-10-04T00:56:35.102Z,67.2
2022-10-04T00:57:39.172Z,67.24
2022-10-04T00:58:43.252Z,67.17
2022-10-04T00:59:47.346Z,67.28
2022-10-04T01:00:51.921Z,67.19
2022-10-04T01:01:56.140Z,66.99
2022-10-04T01:03:00.250Z,67.17
2022-10-04T01:04:04.337Z,67.24
2022-10-04T01:05:08.440Z,67.25
2022-10-04T01:06:12.545Z,67.2
2022-10-04T01:07:16.629Z,67.14
2022-10-04T01:08:20.705Z,67.19
2022-10-04T01:09:24.769Z,67.22
2022-10-04T01:10:28.885Z,67.32
2022-10-04T01:11:32.980Z,67.24
2022-10-04T01:12:37.076Z,67.42
2022-10-04T01:13:41.208Z,67.39
2022-10-04T01:14:45.295Z,67.32
2022-10-04T01:15:49.560Z,67.44
2022-10-04T01:16:53.723Z,67.35
2022-10-04T01:18:02.013Z,67.37
2022-10-04T01:19:06.315Z,67.4
2022-10-04T01:20:10.410Z,67.41
2022-10-04T01:21:14.527Z,67.36
2022-10-04T01:22:18.618Z,67.3
2022-10-04T01:23:22.723Z,67.36
2022-10-04T01:24:26.820Z,67.36
2022-10-04T01:25:30.954Z,67.35
2022-10-04T01:26:35.085Z,67.31
2022-10-04T01:27:39.215Z,67.24
2022-10-04T01:28:43.289Z,67.45
2022-10-04T01:29:47.408Z,67.3
2022-10-04T01:30:51.500Z,67.31
2022-10-04T01:31:55.841Z,67.19
2022-10-04T01:32:59.998Z,67.22
2022-10-04T01:34:04.096Z,67.15
2022-10-04T01:35:08.198Z,67.25
2022-10-04T01:36:12.304Z,67.25
2022-10-04T01:37:16.410Z,67.09
2022-10-04T01:38:20.498Z,67.32
2022-10-04T01:39:24.601Z,67.22
2022-10-04T01:40:28.686Z,67.24
2022-10-04T01:41:32.789Z,67.23
2022-10-04T01:42:36.906Z,67.22
2022-10-04T01:43:40.992Z,67.23
2022-10-04T01:44:45.118Z,67.17
2022-10-04T01:45:49.223Z,67.17
2022-10-04T01:46:53.626Z,66.96
2022-10-04T01:47:57.759Z,67.2
2022-10-04T01:49:01.870Z,67.29
2022-10-04T01:50:10.533Z,67.31
2022-10-04T01:51:16.553Z,67.25
2022-10-04T01:52:20.656Z,67.07
2022-10-04T01:53:24.767Z,67.17
2022-10-04T01:54:28.849Z,67.17
2022-10-04T01:55:32.953Z,67.19
2022-10-04T01:56:37.100Z,67.06
2022-10-04T01:57:41.213Z,67.19
2022-10-04T01:58:45.307Z,67.24
2022-10-04T01:59:49.395Z,67.08
2022-10-04T02:00:53.739Z,67.15
2022-10-04T02:01:57.887Z,67.01
2022-10-04T02:03:01.978Z,67.17
2022-10-04T02:04:06.086Z,67.28
2022-10-04T02:05:10.288Z,67.15
2022-10-04T02:06:14.423Z,67.07
2022-10-04T02:07:18.524Z,67.12
2022-10-04T02:08:22.715Z,67.22
2022-10-04T02:09:26.832Z,67.09
2022-10-04T02:10:30.934Z,67.09
2022-10-04T02:11:35.031Z,67.2
2022-10-04T02:12:39.141Z,67.19
2022-10-04T02:13:43.240Z,67.12
2022-10-04T02:14:47.346Z,67.18
2022-10-04T02:15:51.606Z,67.18
2022-10-04T02:16:55.788Z,67.17
2022-10-04T02:17:59.890Z,67.26
2022-10-04T02:19:04.015Z,67.27
2022-10-04T02:20:08.086Z,67.3
2022-10-04T02:21:12.167Z,67.31
2022-10-04T02:22:16.270Z,67.26
2022-10-04T02:23:20.385Z,67.29
2022-10-04T02:24:24.473Z,67.3
2022-10-04T02:25:28.600Z,67.29
2022-10-04T02:26:32.701Z,67.38
2022-10-04T02:27:36.806Z,67.33
2022-10-04T02:28:40.919Z,67.3
2022-10-04T02:29:45.026Z,67.38
2022-10-04T02:30:49.112Z,67.42
2022-10-04T02:31:53.227Z,67.43
2022-10-04T02:32:57.443Z,67.39
2022-10-04T02:34:01.577Z,67.35
2022-10-04T02:35:05.650Z,67.39
2022-10-04T02:36:09.736Z,67.44
2022-10-04T02:37:14.101Z,67.34
2022-10-04T02:38:18.186Z,67.35
2022-10-04T02:39:22.309Z,67.59
2022-10-04T02:40:26.375Z,67.23
2022-10-04T02:41:30.465Z,67.45
2022-10-04T02:42:34.547Z,67.54
2022-10-04T02:43:38.639Z,67.37
2022-10-04T02:44:42.744Z,67.53
2022-10-04T02:45:46.836Z,67.45
2022-10-04T02:46:51.196Z,67.47
2022-10-04T02:47:55.326Z,67.5
2022-10-04T02:48:59.426Z,67.46
2022-10-04T02:50:03.541Z,67.54
2022-10-04T02:51:07.648Z,67.4
2022-10-04T02:52:11.744Z,67.57
2022-10-04T02:53:15.857Z,67.46
2022-10-04T02:54:19.953Z,67.42
2022-10-04T02:55:24.071Z,67.5
2022-10-04T02:56:28.154Z,67.44
2022-10-04T02:57:32.272Z,67.35
2022-10-04T02:58:36.373Z,67.42
2022-10-04T02:59:40.478Z,67.43
2022-10-04T03:00:44.772Z,67.39
2022-10-04T03:01:49.095Z,67.48
2022-10-04T03:02:53.235Z,67.25
2022-10-04T03:03:57.344Z,67.36
2022-10-04T03:05:01.452Z,67.37
2022-10-04T03:06:05.574Z,67.47
2022-10-04T03:07:09.665Z,67.35
2022-10-04T03:08:13.796Z,67.01
2022-10-04T03:09:17.901Z,66.67
2022-10-04T03:10:22.006Z,66.42
2022-10-04T03:11:26.125Z,66.15
2022-10-04T03:12:30.225Z,65.82
2022-10-04T03:13:34.338Z,65.62
2022-10-04T03:14:38.446Z,65.31
2022-10-04T03:15:42.657Z,65.03
2022-10-04T03:16:46.790Z,64.9
2022-10-04T03:17:50.891Z,64.79
2022-10-04T03:18:54.997Z,64.73
2022-10-04T03:19:59.083Z,64.74
2022-10-04T03:21:03.191Z,64.75
2022-10-04T03:22:07.295Z,64.78
2022-10-04T03:23:11.376Z,64.79
2022-10-04T03:24:15.503Z,64.78
2022-10-04T03:25:19.602Z,64.81
2022-10-04T03:26:23.693Z,64.84
2022-10-04T03:27:27.804Z,64.85
2022-10-04T03:28:32.165Z,64.89
2022-10-04T03:29:36.400Z,64.94
2022-10-04T03:30:40.493Z,64.97
2022-10-04T03:31:45.815Z,64.92
2022-10-04T03:32:50.012Z,64.91
2022-10-04T03:33:54.117Z,64.96
2022-10-04T03:34:58.217Z,64.59
2022-10-04T03:36:02.321Z,64.79
2022-10-04T03:37:06.404Z,64.63
2022-10-04T03:38:10.498Z,64.56
2022-10-04T03:39:14.584Z,64.44
2022-10-04T03:40:18.650Z,64.38
2022-10-04T03:41:22.772Z,64.32
2022-10-04T03:42:26.867Z,64.18
2022-10-04T03:43:30.982Z,64.16
2022-10-04T03:44:35.053Z,64.18
2022-10-04T03:45:39.237Z,64.09
2022-10-04T03:46:43.359Z,63.98
2022-10-04T03:47:47.466Z,63.97
2022-10-04T03:48:51.598Z,64.02
2022-10-04T03:49:55.694Z,63.92
2022-10-04T03:50:59.835Z,63.91
2022-10-04T03:52:03.935Z,63.88
2022-10-04T03:53:08.059Z,63.82
2022-10-04T03:54:12.193Z,63.92
2022-10-04T03:55:16.299Z,63.9
2022-10-04T03:56:20.394Z,63.93
2022-10-04T03:57:24.490Z,63.67
2022-10-04T03:58:28.587Z,63.59
2022-10-04T03:59:32.698Z,63.45
2022-10-04T04:00:36.815Z,63.42
2022-10-04T04:01:41.896Z,62.92
2022-10-04T04:02:48.345Z,62.6
2022-10-04T04:03:52.539Z,62.36
2022-10-04T04:04:56.635Z,62.3
2022-10-04T04:06:00.738Z,62.4
2022-10-04T04:07:04.866Z,62.67
2022-10-04T04:08:08.965Z,62.79
2022-10-04T04:09:13.107Z,62.78
2022-10-04T04:10:18.882Z,63.11
2022-10-04T04:11:22.964Z,63.64
2022-10-04T04:12:27.101Z,64.05
2022-10-04T04:13:31.243Z,63.84
2022-10-04T04:14:35.369Z,63.74
2022-10-04T04:15:39.463Z,63.81
2022-10-04T04:16:43.731Z,63.93
2022-10-04T04:17:48.189Z,64.01
2022-10-04T04:18:52.302Z,64.08
2022-10-04T04:19:56.428Z,64.18
2022-10-04T04:21:02.226Z,64.3
2022-10-04T04:22:06.336Z,64.38
2022-10-04T04:23:10.437Z,64.31
2022-10-04T04:24:14.523Z,64.59
2022-10-04T04:25:18.611Z,64.7
2022-10-04T04:26:22.703Z,64.77
2022-10-04T04:27:31.011Z,64.76
2022-10-04T04:28:35.355Z,64.66
2022-10-04T04:29:39.518Z,64.8
2022-10-04T04:30:43.602Z,64.86
2022-10-04T04:31:48.176Z,64.93
2022-10-04T04:32:52.323Z,65.44
2022-10-04T04:33:56.430Z,65.69
2022-10-04T04:35:00.524Z,65.13
2022-10-04T04:36:04.618Z,64.21
2022-10-04T04:37:08.714Z,64.5
2022-10-04T04:38:12.835Z,64.49
2022-10-04T04:39:16.962Z,64.55
2022-10-04T04:40:21.067Z,64.41
2022-10-04T04:41:25.166Z,64.5
2022-10-04T04:42:29.269Z,64.63
2022-10-04T04:43:33.395Z,64.76
2022-10-04T04:44:37.519Z,64.85
2022-10-04T04:45:41.854Z,64.89
2022-10-04T04:46:46.244Z,64.99
2022-10-04T04:47:50.411Z,64.96
2022-10-04T04:48:54.537Z,64.95
2022-10-04T04:49:58.677Z,64.98
2022-10-04T04:51:02.835Z,64.95
2022-10-04T04:52:06.956Z,64.96
2022-10-04T04:53:11.090Z,64.92
2022-10-04T04:54:15.211Z,64.89
2022-10-04T04:55:19.321Z,64.96
2022-10-04T04:56:23.434Z,64.92
2022-10-04T04:57:27.528Z,64.93
2022-10-04T04:58:31.613Z,64.89
2022-10-04T04:59:35.710Z,64.9
2022-10-04T05:00:39.986Z,64.85
2022-10-04T05:01:45.509Z,64.91
2022-10-04T05:02:49.879Z,64.95
2022-10-04T05:03:54.004Z,64.77
2022-10-04T05:04:58.112Z,64.89
2022-10-04T05:06:02.238Z,64.85
2022-10-04T05:07:06.381Z,64.82
2022-10-04T05:08:10.497Z,64.79
2022-10-04T05:09:14.606Z,64.84
2022-10-04T05:10:18.721Z,64.7
2022-10-04T05:11:22.853Z,64.79
2022-10-04T05:12:26.950Z,64.76
2022-10-04T05:13:31.032Z,64.66
2022-10-04T05:14:35.122Z,64.83
2022-10-04T05:15:39.215Z,64.8
2022-10-04T05:16:43.672Z,64.8
2022-10-04T05:17:47.782Z,64.88
2022-10-04T05:18:51.887Z,64.93
2022-10-04T05:19:56.000Z,64.95
2022-10-04T05:21:00.103Z,64.91
2022-10-04T05:22:04.225Z,64.93
2022-10-04T05:23:08.617Z,64.96
2022-10-04T05:24:12.735Z,64.96
2022-10-04T05:25:16.832Z,64.89
2022-10-04T05:26:20.960Z,64.84
2022-10-04T05:27:25.091Z,64.79
2022-10-04T05:28:29.515Z,64.79
2022-10-04T05:29:33.691Z,64.86
2022-10-04T05:30:37.783Z,64.89
2022-10-04T05:31:42.817Z,64.94
2022-10-04T05:32:47.030Z,64.93
2022-10-04T05:33:51.134Z,64.95
2022-10-04T05:34:55.243Z,64.96
2022-10-04T05:35:59.361Z,64.94
2022-10-04T05:37:03.476Z,64.84
2022-10-04T05:38:07.592Z,64.87
2022-10-04T05:39:11.675Z,64.92
2022-10-04T05:40:15.739Z,64.91
2022-10-04T05:41:19.899Z,64.89
2022-10-04T05:42:24.032Z,64.94
2022-10-04T05:43:28.154Z,64.96
2022-10-04T05:44:32.241Z,64.93
2022-10-04T05:45:36.559Z,64.92
2022-10-04T05:46:45.949Z,64.94
2022-10-04T05:47:50.057Z,64.88
2022-10-04T05:48:54.157Z,64.94
2022-10-04T05:49:58.248Z,64.94
2022-10-04T05:51:02.337Z,64.9
2022-10-04T05:52:06.444Z,64.89
2022-10-04T05:53:10.557Z,64.9
2022-10-04T05:54:14.684Z,64.93
2022-10-04T05:55:18.801Z,64.89
2022-10-04T05:56:22.895Z,64.88
2022-10-04T05:57:26.998Z,64.87
2022-10-04T05:58:31.087Z,64.83
2022-10-04T05:59:35.201Z,64.81
2022-10-04T06:00:39.318Z,64.81
2022-10-04T06:01:44.895Z,64.82
2022-10-04T06:02:49.462Z,64.85
2022-10-04T06:03:53.586Z,64.82
2022-10-04T06:04:57.778Z,64.78
2022-10-04T06:06:01.860Z,64.76
2022-10-04T06:07:05.975Z,64.8
2022-10-04T06:08:10.068Z,64.71
2022-10-04T06:09:14.175Z,64.66
2022-10-04T06:10:18.370Z,64.64
2022-10-04T06:11:22.480Z,64.61
2022-10-04T06:12:26.593Z,64.55
2022-10-04T06:13:30.682Z,64.45
2022-10-04T06:14:34.789Z,64.48
2022-10-04T06:15:38.876Z,64.43
2022-10-04T06:16:43.268Z,64.43
2022-10-04T06:17:47.503Z,64.43
2022-10-04T06:18:51.600Z,64.34
2022-10-04T06:19:55.717Z,64.3
2022-10-04T06:20:59.848Z,64.25
2022-10-04T06:22:04.006Z,64.14
2022-10-04T06:23:08.113Z,64.21
2022-10-04T06:24:12.193Z,64.29
2022-10-04T06:25:16.302Z,64.37
2022-10-04T06:26:20.434Z,64.32
2022-10-04T06:27:24.551Z,64.34
2022-10-04T06:28:28.930Z,64.32
2022-10-04T06:29:33.069Z,64.35
2022-10-04T06:30:37.371Z,64.24
2022-10-04T06:31:42.236Z,64.26
2022-10-04T06:32:46.443Z,64.26
2022-10-04T06:33:50.533Z,64.34
2022-10-04T06:34:54.616Z,64.37
2022-10-04T06:35:58.699Z,64.4
2022-10-04T06:37:02.856Z,64.39
2022-10-04T06:38:06.958Z,64.42
2022-10-04T06:39:11.037Z,64.42
2022-10-04T06:40:15.127Z,64.38
2022-10-04T06:41:19.213Z,64.37
2022-10-04T06:42:23.327Z,64.38
2022-10-04T06:43:27.412Z,64.36
2022-10-04T06:44:31.511Z,64.37
2022-10-04T06:45:35.638Z,64.35
2022-10-04T06:46:39.901Z,64.35
2022-10-04T06:47:44.015Z,64.34
2022-10-04T06:48:48.140Z,64.36
2022-10-04T06:49:52.243Z,64.27
2022-10-04T06:50:56.361Z,64.21
2022-10-04T06:52:00.457Z,64.22
2022-10-04T06:53:04.584Z,64.22
2022-10-04T06:54:08.698Z,64.18
2022-10-04T06:55:12.786Z,64.22
2022-10-04T06:56:16.894Z,64.26
2022-10-04T06:57:21.000Z,64.28
2022-10-04T06:58:25.148Z,64.23
2022-10-04T06:59:29.293Z,64.21
2022-10-04T07:00:33.393Z,64.21
2022-10-04T07:01:37.734Z,64.19
2022-10-04T07:02:42.115Z,64.19
2022-10-04T07:03:52.806Z,64.17
2022-10-04T07:05:12.397Z,64.19
2022-10-04T07:06:16.539Z,64.16
2022-10-04T07:07:20.663Z,64.14
2022-10-04T07:08:24.797Z,64.21
2022-10-04T07:09:28.916Z,64.22
2022-10-04T07:10:33.136Z,64.21
2022-10-04T07:11:37.259Z,64.15
2022-10-04T07:12:41.412Z,64.11
2022-10-04T07:13:45.538Z,64.1
2022-10-04T07:14:49.645Z,64.13
2022-10-04T07:15:54.020Z,64.12
2022-10-04T07:16:58.211Z,64.13
2022-10-04T07:18:02.328Z,64.1
2022-10-04T07:19:06.444Z,64.12
2022-10-04T07:20:10.549Z,64.12
2022-10-04T07:21:14.655Z,64.09
2022-10-04T07:22:18.771Z,64.12
2022-10-04T07:23:29.492Z,64.12
2022-10-04T07:24:33.614Z,64.1
2022-10-04T07:25:37.733Z,64.06
2022-10-04T07:26:41.897Z,64.02
2022-10-04T07:27:46.012Z,64.01
2022-10-04T07:28:50.144Z,64.04
2022-10-04T07:29:54.272Z,64.07
2022-10-04T07:30:58.617Z,64.01
2022-10-04T07:32:02.773Z,63.98
2022-10-04T07:33:06.878Z,63.98
2022-10-04T07:34:10.963Z,63.98
2022-10-04T07:35:15.113Z,63.97
2022-10-04T07:36:23.622Z,63.89
2022-10-04T07:37:27.710Z,63.89
2022-10-04T07:38:31.892Z,63.94
2022-10-04T07:39:35.974Z,63.96
2022-10-04T07:40:40.111Z,63.98
2022-10-04T07:41:45.406Z,63.94
2022-10-04T07:42:49.831Z,63.93
2022-10-04T07:43:53.956Z,63.93
2022-10-04T07:44:58.078Z,63.91
2022-10-04T07:46:02.380Z,63.93
2022-10-04T07:47:06.523Z,63.95
2022-10-04T07:48:10.662Z,63.86
2022-10-04T07:49:14.854Z,63.87
2022-10-04T07:50:18.974Z,63.9
2022-10-04T07:51:23.071Z,63.84
2022-10-04T07:52:27.204Z,63.84
2022-10-04T07:53:31.294Z,63.89
2022-10-04T07:54:35.416Z,63.92
2022-10-04T07:55:39.564Z,63.87
2022-10-04T07:56:43.676Z,63.83
2022-10-04T07:57:47.797Z,63.71
2022-10-04T07:58:51.937Z,63.71
2022-10-04T07:59:56.073Z,63.77
2022-10-04T08:01:00.220Z,63.72
2022-10-04T08:02:04.544Z,63.6
2022-10-04T08:03:08.972Z,63.63
2022-10-04T08:04:13.131Z,63.69
2022-10-04T08:05:17.257Z,63.75
2022-10-04T08:06:21.373Z,63.73
2022-10-04T08:07:25.500Z,63.73
2022-10-04T08:08:29.672Z,63.74
2022-10-04T08:09:33.785Z,63.74
2022-10-04T08:10:37.881Z,63.72
2022-10-04T08:11:43.072Z,63.71
2022-10-04T08:12:47.310Z,63.72
2022-10-04T08:13:51.417Z,63.7
2022-10-04T08:14:55.564Z,63.73
2022-10-04T08:15:59.839Z,63.67
2022-10-04T08:17:04.030Z,63.6
2022-10-04T08:18:08.138Z,63.63
2022-10-04T08:19:12.242Z,63.67
2022-10-04T08:20:16.359Z,63.69
2022-10-04T08:21:20.482Z,63.67
2022-10-04T08:22:24.625Z,63.64
2022-10-04T08:23:28.741Z,63.63
2022-10-04T08:24:32.866Z,63.62
2022-10-04T08:25:36.991Z,63.63
2022-10-04T08:26:41.818Z,63.63
2022-10-04T08:27:46.136Z,63.66
2022-10-04T08:28:50.237Z,63.65
2022-10-04T08:29:54.335Z,63.62
2022-10-04T08:30:58.745Z,63.58
2022-10-04T08:32:07.186Z,63.61
2022-10-04T08:33:11.327Z,63.65
2022-10-04T08:34:15.407Z,63.6
2022-10-04T08:35:19.523Z,63.59
2022-10-04T08:36:23.631Z,63.56
2022-10-04T08:37:27.743Z,63.52
2022-10-04T08:38:31.871Z,63.47
2022-10-04T08:39:37.403Z,63.49
2022-10-04T08:40:41.662Z,63.52
2022-10-04T08:41:45.833Z,63.58
2022-10-04T08:42:49.952Z,63.61
2022-10-04T08:43:54.064Z,63.57
2022-10-04T08:44:58.360Z,63.58
2022-10-04T08:46:02.718Z,63.61
2022-10-04T08:47:06.870Z,63.59
2022-10-04T08:48:10.953Z,63.56
2022-10-04T08:49:15.068Z,63.56
2022-10-04T08:50:19.207Z,63.55
2022-10-04T08:51:23.297Z,63.56
2022-10-04T08:52:27.428Z,63.5
2022-10-04T08:53:31.543Z,63.49
2022-10-04T08:54:35.713Z,63.44
2022-10-04T08:55:39.813Z,63.43
2022-10-04T08:56:45.141Z,63.49
2022-10-04T08:57:49.441Z,63.5
2022-10-04T08:58:53.556Z,63.5
2022-10-04T08:59:57.738Z,63.47
2022-10-04T09:01:02.221Z,63.54
2022-10-04T09:02:06.380Z,63.55
2022-10-04T09:03:10.653Z,63.55
2022-10-04T09:04:14.778Z,63.52
2022-10-04T09:05:19.026Z,63.55
2022-10-04T09:06:23.118Z,63.49
2022-10-04T09:07:27.212Z,63.47
2022-10-04T09:08:31.301Z,63.49
2022-10-04T09:09:35.404Z,63.52
2022-10-04T09:10:39.559Z,63.5
2022-10-04T09:11:43.626Z,63.56
2022-10-04T09:12:47.712Z,63.57
2022-10-04T09:13:51.801Z,63.57
2022-10-04T09:14:55.920Z,63.51
2022-10-04T09:16:00.274Z,63.5
2022-10-04T09:17:04.389Z,63.52
2022-10-04T09:18:08.484Z,63.52
2022-10-04T09:19:12.640Z,63.47
2022-10-04T09:20:40.977Z,63.52
2022-10-04T09:21:45.294Z,63.53
2022-10-04T09:22:49.406Z,63.51
2022-10-04T09:23:53.544Z,63.49
2022-10-04T09:24:57.656Z,63.56
2022-10-04T09:26:01.949Z,63.57
2022-10-04T09:27:06.058Z,63.52
2022-10-04T09:28:10.379Z,63.52
2022-10-04T09:29:14.513Z,63.52
2022-10-04T09:30:18.622Z,63.5
2022-10-04T09:31:22.909Z,63.49
2022-10-04T09:32:27.061Z,63.46
2022-10-04T09:33:31.126Z,63.48
2022-10-04T09:34:39.358Z,63.46
2022-10-04T09:35:43.454Z,63.43
2022-10-04T09:36:48.100Z,63.37
2022-10-04T09:37:52.265Z,63.39
2022-10-04T09:39:31.213Z,63.45
2022-10-04T09:40:35.451Z,63.46
2022-10-04T09:41:39.526Z,63.39
2022-10-04T09:42:43.630Z,63.4
2022-10-04T09:43:47.756Z,63.4
2022-10-04T09:44:51.896Z,63.44
2022-10-04T09:45:56.135Z,63.38
2022-10-04T09:47:00.430Z,63.38
2022-10-04T09:48:04.597Z,63.37
2022-10-04T09:49:08.715Z,63.42
2022-10-04T09:50:12.811Z,63.41
2022-10-04T09:51:16.890Z,63.34
2022-10-04T09:52:21.045Z,63.34
2022-10-04T09:53:25.151Z,63.4
2022-10-04T09:54:29.254Z,63.35
2022-10-04T09:55:33.350Z,63.37
2022-10-04T09:56:37.458Z,63.41
2022-10-04T09:57:41.587Z,63.47
2022-10-04T09:58:45.701Z,63.49
2022-10-04T09:59:49.840Z,63.48
2022-10-04T10:00:53.950Z,63.5
2022-10-04T10:01:58.423Z,63.5
2022-10-04T10:03:02.975Z,63.42
2022-10-04T10:04:07.160Z,63.38
2022-10-04T10:05:11.295Z,63.4
2022-10-04T10:06:15.381Z,63.37
2022-10-04T10:07:19.489Z,63.39
2022-10-04T10:08:29.589Z,63.36
2022-10-04T10:09:33.706Z,63.28
2022-10-04T10:10:37.927Z,63.25
2022-10-04T10:11:43.291Z,63.17
2022-10-04T10:12:47.509Z,63.12
2022-10-04T10:13:51.604Z,63.13
2022-10-04T10:14:55.691Z,63.12
2022-10-04T10:16:00.031Z,63.09
2022-10-04T10:17:04.209Z,63.1
2022-10-04T10:18:08.333Z,63.01
2022-10-04T10:19:12.418Z,63.06
2022-10-04T10:20:16.547Z,63.07
2022-10-04T10:21:20.689Z,63.07
2022-10-04T10:22:24.784Z,63.08
2022-10-04T10:23:28.890Z,63.05
2022-10-04T10:24:33.014Z,63.07
2022-10-04T10:25:37.120Z,63.12
2022-10-04T10:26:41.881Z,63.15
2022-10-04T10:27:46.269Z,63.17
2022-10-04T10:28:50.354Z,63.17
2022-10-04T10:29:57.505Z,63.22
2022-10-04T10:31:01.778Z,63.23
2022-10-04T10:32:05.916Z,63.18
2022-10-04T10:33:10.016Z,63.14
2022-10-04T10:34:14.136Z,63.14
2022-10-04T10:35:18.251Z,63.21
2022-10-04T10:36:22.381Z,63.21
2022-10-04T10:37:26.492Z,63.18
2022-10-04T10:38:30.598Z,62.94
2022-10-04T10:39:34.694Z,62.77
2022-10-04T10:40:38.819Z,62.77
2022-10-04T10:41:42.913Z,62.81
2022-10-04T10:42:47.023Z,62.8
2022-10-04T10:43:51.104Z,62.82
2022-10-04T10:44:55.200Z,62.86
2022-10-04T10:45:59.296Z,62.95
2022-10-04T10:47:03.744Z,62.96
2022-10-04T10:48:07.883Z,62.99
2022-10-04T10:49:11.981Z,62.98
2022-10-04T10:50:16.081Z,63
2022-10-04T10:51:20.201Z,63
2022-10-04T10:52:24.336Z,62.95
2022-10-04T10:53:28.451Z,62.91
2022-10-04T10:54:32.605Z,62.88
2022-10-04T10:55:36.721Z,62.88
2022-10-04T10:56:40.814Z,62.93
2022-10-04T10:57:44.940Z,62.95
2022-10-04T10:58:49.048Z,62.95
2022-10-04T10:59:53.198Z,62.91
2022-10-04T11:00:57.324Z,62.87
2022-10-04T11:02:01.754Z,62.89
2022-10-04T11:03:23.823Z,62.89
2022-10-04T11:04:29.492Z,62.9
2022-10-04T11:05:33.606Z,62.89
2022-10-04T11:06:37.736Z,62.88
2022-10-04T11:07:41.890Z,62.86
2022-10-04T11:08:46.014Z,62.88
2022-10-04T11:09:50.138Z,62.8
2022-10-04T11:10:54.235Z,62.73
2022-10-04T11:11:58.328Z,62.71
2022-10-04T11:13:02.446Z,62.77
2022-10-04T11:14:06.566Z,62.79
2022-10-04T11:15:10.753Z,62.78
2022-10-04T11:16:15.099Z,62.69
2022-10-04T11:17:19.272Z,62.73
2022-10-04T11:18:23.388Z,62.78
2022-10-04T11:19:27.502Z,62.79
2022-10-04T11:20:31.629Z,62.85
2022-10-04T11:21:35.733Z,62.86
2022-10-04T11:22:40.562Z,62.87
2022-10-04T11:23:44.652Z,62.88
2022-10-04T11:24:48.737Z,62.89
2022-10-04T11:25:52.850Z,62.81
2022-10-04T11:26:56.988Z,62.5
2022-10-04T11:28:01.345Z,62.44
2022-10-04T11:29:05.529Z,62.45
2022-10-04T11:30:09.777Z,62.42
2022-10-04T11:31:14.138Z,62.48
2022-10-04T11:32:18.313Z,62.41
2022-10-04T11:33:22.386Z,62.44
2022-10-04T11:34:26.494Z,62.49
2022-10-04T11:35:30.637Z,62.53
2022-10-04T11:36:34.802Z,62.59
2022-10-04T11:37:38.889Z,62.67
2022-10-04T11:38:42.965Z,62.71
2022-10-04T11:39:47.071Z,62.73
2022-10-04T11:40:51.186Z,62.59
2022-10-04T11:41:55.301Z,62.62
2022-10-04T11:42:59.413Z,62.63
2022-10-04T11:44:03.514Z,62.66
2022-10-04T11:45:07.622Z,62.67
2022-10-04T11:46:13.318Z,62.67
2022-10-04T11:47:17.465Z,62.56
2022-10-04T11:48:21.602Z,62.34
2022-10-04T11:49:25.724Z,62.32
2022-10-04T11:50:29.861Z,62.38
2022-10-04T11:51:34.002Z,62.39
2022-10-04T11:52:38.150Z,62.41
2022-10-04T11:53:42.297Z,62.54
2022-10-04T11:54:46.402Z,62.64
2022-10-04T11:55:50.523Z,62.62
2022-10-04T11:56:54.649Z,62.64
2022-10-04T11:57:58.821Z,62.6
2022-10-04T11:59:02.946Z,62.61
2022-10-04T12:00:07.075Z,62.65
2022-10-04T12:01:11.222Z,62.62
2022-10-04T12:02:15.296Z,62.62
2022-10-04T12:03:19.652Z,62.59
2022-10-04T12:04:24.038Z,62.48
2022-10-04T12:05:28.177Z,62.52
2022-10-04T12:06:32.293Z,62.53
2022-10-04T12:07:36.397Z,62.33
2022-10-04T12:08:40.493Z,62.41
2022-10-04T12:09:44.607Z,62.43
2022-10-04T12:10:48.693Z,62.42
2022-10-04T12:11:52.808Z,62.27
2022-10-04T12:12:56.903Z,62.29
2022-10-04T12:14:01.026Z,62.31
2022-10-04T12:15:05.238Z,62.19
2022-10-04T12:16:09.661Z,62.08
2022-10-04T12:17:13.785Z,62.12
2022-10-04T12:18:18.040Z,62.22
2022-10-04T12:19:22.176Z,62.15
2022-10-04T12:20:26.301Z,62.06
2022-10-04T12:21:30.385Z,61.94
2022-10-04T12:22:34.480Z,62.18
2022-10-04T12:23:38.613Z,62.34
2022-10-04T12:24:42.771Z,62.48
2022-10-04T12:25:46.897Z,62.23
2022-10-04T12:26:50.999Z,61.69
2022-10-04T12:27:55.315Z,61.67
2022-10-04T12:28:59.459Z,61.95
2022-10-04T12:30:03.665Z,62.13
2022-10-04T12:31:08.036Z,62.02
2022-10-04T12:32:12.229Z,61.83
2022-10-04T12:33:16.341Z,62.12
2022-10-04T12:34:20.438Z,62.37
2022-10-04T12:35:24.591Z,62.54
2022-10-04T12:36:28.704Z,62.58
2022-10-04T12:37:32.811Z,62.66
2022-10-04T12:38:36.917Z,62.53
2022-10-04T12:39:41.033Z,62.58
2022-10-04T12:40:45.204Z,62.68
2022-10-04T12:41:49.310Z,62.73
2022-10-04T12:42:53.414Z,62.69
2022-10-04T12:43:57.509Z,62.57
2022-10-04T12:45:01.624Z,62.6
2022-10-04T12:46:05.975Z,62.54
2022-10-04T12:47:10.224Z,62.7
2022-10-04T12:48:14.364Z,62.49
2022-10-04T12:49:18.487Z,62.47
2022-10-04T12:50:22.585Z,62.58
2022-10-04T12:51:26.713Z,62.77
2022-10-04T12:52:30.809Z,62.74
2022-10-04T12:53:34.947Z,62.75
2022-10-04T12:54:39.059Z,62.83
2022-10-04T12:55:43.164Z,62.86
2022-10-04T12:56:48.722Z,62.57
2022-10-04T12:57:52.967Z,62.31
2022-10-04T12:58:57.061Z,62.15
2022-10-04T13:00:01.146Z,62.05
2022-10-04T13:01:05.459Z,62.18
2022-10-04T13:02:09.778Z,62.48
2022-10-04T13:03:13.949Z,62.63
2022-10-04T13:04:18.068Z,62.16
2022-10-04T13:05:22.170Z,61.94
2022-10-04T13:06:26.253Z,62.18
2022-10-04T13:07:30.424Z,62.34
2022-10-04T13:08:34.546Z,62.54
2022-10-04T13:09:38.671Z,62.65
2022-10-04T13:10:42.796Z,62.72
2022-10-04T13:11:46.937Z,62.52
2022-10-04T13:12:51.077Z,62.59
2022-10-04T13:13:55.207Z,62.57
2022-10-04T13:14:59.320Z,62.51
2022-10-04T13:18:37.567Z,61.84
2022-10-04T13:19:42.116Z,62.21
2022-10-04T13:20:46.226Z,62.11
2022-10-04T13:21:50.809Z,61.85
2022-10-04T13:22:59.691Z,62.25
2022-10-04T13:24:03.818Z,62.12
2022-10-04T13:25:07.911Z,62.16
2022-10-04T13:26:12.006Z,62.47
2022-10-04T13:27:16.121Z,62.43
2022-10-04T13:28:20.629Z,62.46
2022-10-04T13:29:24.905Z,61.86
2022-10-04T13:30:29.047Z,61.66
2022-10-04T13:31:33.384Z,61.7
2022-10-04T13:32:37.514Z,61.89
2022-10-04T13:33:41.640Z,62.09
2022-10-04T13:34:45.787Z,62.22
2022-10-04T13:35:49.909Z,62.36
2022-10-04T13:36:54.040Z,62.27
2022-10-04T13:37:58.151Z,62.25
2022-10-04T13:39:02.256Z,62.38
2022-10-04T13:40:06.379Z,62.3
2022-10-04T13:41:10.507Z,62.33
2022-10-04T13:42:14.832Z,62.3
2022-10-04T13:43:18.939Z,62.35
2022-10-04T13:44:23.060Z,62.3
2022-10-04T13:45:27.401Z,62.31
2022-10-04T13:46:31.541Z,62.29
2022-10-04T13:47:35.659Z,62.28
2022-10-04T13:48:39.794Z,62.29
2022-10-04T13:49:43.886Z,62.21
2022-10-04T13:50:48.000Z,62.21
2022-10-04T13:51:52.144Z,62.17
2022-10-04T13:52:56.571Z,62.19
2022-10-04T13:54:00.682Z,62.2
2022-10-04T13:55:04.794Z,62.2